sensor_id;sensor_type;location;lat;lon;timestamp;P1;durP1;ratioP1;P2;durP2;ratioP2
26989;SDS011;14537;47.788;11.858;2023-04-06T00:00:48;7.20;;;3.72;;
26989;SDS011;14537;47.788;11.858;2023-04-06T00:03:14;6.38;;;3.25;;
26989;SDS011;14537;47.788;11.858;2023-04-06T00:05:40;8.18;;;3.88;;
26989;SDS011;14537;47.788;11.858;2023-04-06T00:08:06;5.88;;;3.25;;
26989;SDS011;14537;47.788;11.858;2023-04-06T00:10:32;4.20;;;2.60;;
26989;SDS011;14537;47.788;11.858;2023-04-06T00:12:58;10.38;;;4.10;;
26989;SDS011;14537;47.788;11.858;2023-04-06T00:15:24;4.97;;;2.95;;
26989;SDS011;14537;47.788;11.858;2023-04-06T00:17:50;7.50;;;2.95;;
26989;SDS011;14537;47.788;11.858;2023-04-06T00:20:16;11.25;;;3.88;;
26989;SDS011;14537;47.788;11.858;2023-04-06T00:22:43;8.70;;;3.35;;
26989;SDS011;14537;47.788;11.858;2023-04-06T00:25:09;5.35;;;3.40;;
26989;SDS011;14537;47.788;11.858;2023-04-06T00:27:36;6.90;;;3.30;;
26989;SDS011;14537;47.788;11.858;2023-04-06T00:30:03;5.85;;;3.30;;
26989;SDS011;14537;47.788;11.858;2023-04-06T00:32:30;6.53;;;3.38;;
26989;SDS011;14537;47.788;11.858;2023-04-06T00:34:55;7.30;;;3.83;;
26989;SDS011;14537;47.788;11.858;2023-04-06T00:37:21;7.10;;;3.70;;
26989;SDS011;14537;47.788;11.858;2023-04-06T00:39:47;6.97;;;3.03;;
26989;SDS011;14537;47.788;11.858;2023-04-06T00:42:13;5.05;;;2.65;;
26989;SDS011;14537;47.788;11.858;2023-04-06T00:44:40;5.20;;;3.53;;
26989;SDS011;14537;47.788;11.858;2023-04-06T00:47:06;10.52;;;3.88;;
26989;SDS011;14537;47.788;11.858;2023-04-06T00:49:32;8.48;;;2.88;;
26989;SDS011;14537;47.788;11.858;2023-04-06T00:51:58;6.40;;;3.63;;
26989;SDS011;14537;47.788;11.858;2023-04-06T00:54:23;5.15;;;3.00;;
26989;SDS011;14537;47.788;11.858;2023-04-06T00:56:49;6.00;;;3.33;;
26989;SDS011;14537;47.788;11.858;2023-04-06T00:59:15;6.18;;;3.28;;
26989;SDS011;14537;47.788;11.858;2023-04-06T01:01:41;6.40;;;3.45;;
26989;SDS011;14537;47.788;11.858;2023-04-06T01:04:06;6.38;;;3.22;;
26989;SDS011;14537;47.788;11.858;2023-04-06T01:06:32;5.82;;;2.88;;
26989;SDS011;14537;47.788;11.858;2023-04-06T01:08:58;6.07;;;3.55;;
26989;SDS011;14537;47.788;11.858;2023-04-06T01:11:23;6.97;;;3.40;;
26989;SDS011;14537;47.788;11.858;2023-04-06T01:13:49;6.88;;;3.38;;
26989;SDS011;14537;47.788;11.858;2023-04-06T01:16:15;6.32;;;3.00;;
26989;SDS011;14537;47.788;11.858;2023-04-06T01:18:41;6.72;;;3.00;;
26989;SDS011;14537;47.788;11.858;2023-04-06T01:21:07;9.30;;;3.38;;
26989;SDS011;14537;47.788;11.858;2023-04-06T01:23:33;6.60;;;3.85;;
26989;SDS011;14537;47.788;11.858;2023-04-06T01:26:00;7.65;;;3.13;;
26989;SDS011;14537;47.788;11.858;2023-04-06T01:28:25;6.57;;;3.70;;
26989;SDS011;14537;47.788;11.858;2023-04-06T01:30:51;6.03;;;2.97;;
26989;SDS011;14537;47.788;11.858;2023-04-06T01:33:16;8.02;;;3.45;;
26989;SDS011;14537;47.788;11.858;2023-04-06T01:35:42;5.90;;;3.30;;
26989;SDS011;14537;47.788;11.858;2023-04-06T01:38:08;5.72;;;3.40;;
26989;SDS011;14537;47.788;11.858;2023-04-06T01:40:33;8.82;;;3.67;;
26989;SDS011;14537;47.788;11.858;2023-04-06T01:42:59;7.20;;;3.15;;
26989;SDS011;14537;47.788;11.858;2023-04-06T01:45:25;6.90;;;3.40;;
26989;SDS011;14537;47.788;11.858;2023-04-06T01:47:51;6.60;;;3.10;;
26989;SDS011;14537;47.788;11.858;2023-04-06T01:50:16;5.50;;;3.42;;
26989;SDS011;14537;47.788;11.858;2023-04-06T01:52:42;6.88;;;3.45;;
26989;SDS011;14537;47.788;11.858;2023-04-06T01:55:07;6.68;;;3.67;;
26989;SDS011;14537;47.788;11.858;2023-04-06T01:57:33;6.10;;;3.78;;
26989;SDS011;14537;47.788;11.858;2023-04-06T01:59:59;5.03;;;3.42;;
26989;SDS011;14537;47.788;11.858;2023-04-06T02:02:25;15.95;;;3.60;;
26989;SDS011;14537;47.788;11.858;2023-04-06T02:04:51;11.82;;;4.10;;
26989;SDS011;14537;47.788;11.858;2023-04-06T02:07:16;5.78;;;3.50;;
26989;SDS011;14537;47.788;11.858;2023-04-06T02:09:42;8.63;;;4.20;;
26989;SDS011;14537;47.788;11.858;2023-04-06T02:12:07;6.15;;;3.80;;
26989;SDS011;14537;47.788;11.858;2023-04-06T02:14:33;6.03;;;3.45;;
26989;SDS011;14537;47.788;11.858;2023-04-06T02:16:58;4.88;;;3.00;;
26989;SDS011;14537;47.788;11.858;2023-04-06T02:19:24;5.95;;;3.05;;
26989;SDS011;14537;47.788;11.858;2023-04-06T02:21:50;6.53;;;3.58;;
26989;SDS011;14537;47.788;11.858;2023-04-06T02:24:15;8.65;;;3.95;;
26989;SDS011;14537;47.788;11.858;2023-04-06T02:26:41;8.00;;;4.38;;
26989;SDS011;14537;47.788;11.858;2023-04-06T02:29:07;7.32;;;3.63;;
26989;SDS011;14537;47.788;11.858;2023-04-06T02:31:32;6.10;;;3.38;;
26989;SDS011;14537;47.788;11.858;2023-04-06T02:33:58;6.18;;;3.38;;
26989;SDS011;14537;47.788;11.858;2023-04-06T02:36:23;8.07;;;3.88;;
26989;SDS011;14537;47.788;11.858;2023-04-06T02:38:49;7.45;;;3.72;;
26989;SDS011;14537;47.788;11.858;2023-04-06T02:41:15;8.27;;;4.00;;
26989;SDS011;14537;47.788;11.858;2023-04-06T02:43:40;6.53;;;3.72;;
26989;SDS011;14537;47.788;11.858;2023-04-06T02:46:06;5.32;;;3.15;;
26989;SDS011;14537;47.788;11.858;2023-04-06T02:48:32;8.27;;;3.60;;
26989;SDS011;14537;47.788;11.858;2023-04-06T02:51:00;8.40;;;3.80;;
26989;SDS011;14537;47.788;11.858;2023-04-06T02:53:26;7.70;;;4.13;;
26989;SDS011;14537;47.788;11.858;2023-04-06T02:55:52;6.57;;;3.90;;
26989;SDS011;14537;47.788;11.858;2023-04-06T02:58:18;7.32;;;3.80;;
26989;SDS011;14537;47.788;11.858;2023-04-06T03:00:43;7.75;;;4.07;;
26989;SDS011;14537;47.788;11.858;2023-04-06T03:03:09;13.82;;;4.43;;
26989;SDS011;14537;47.788;11.858;2023-04-06T03:05:35;8.02;;;3.78;;
26989;SDS011;14537;47.788;11.858;2023-04-06T03:08:00;7.07;;;3.65;;
26989;SDS011;14537;47.788;11.858;2023-04-06T03:10:26;13.88;;;4.88;;
26989;SDS011;14537;47.788;11.858;2023-04-06T03:12:52;6.97;;;3.97;;
26989;SDS011;14537;47.788;11.858;2023-04-06T03:15:17;6.57;;;3.63;;
26989;SDS011;14537;47.788;11.858;2023-04-06T03:17:43;11.40;;;4.28;;
26989;SDS011;14537;47.788;11.858;2023-04-06T03:20:08;7.57;;;3.78;;
26989;SDS011;14537;47.788;11.858;2023-04-06T03:22:34;15.35;;;4.60;;
26989;SDS011;14537;47.788;11.858;2023-04-06T03:25:00;8.30;;;4.35;;
26989;SDS011;14537;47.788;11.858;2023-04-06T03:27:25;5.70;;;3.28;;
26989;SDS011;14537;47.788;11.858;2023-04-06T03:29:51;5.95;;;3.35;;
26989;SDS011;14537;47.788;11.858;2023-04-06T03:32:17;5.90;;;3.80;;
26989;SDS011;14537;47.788;11.858;2023-04-06T03:34:42;8.05;;;4.13;;
26989;SDS011;14537;47.788;11.858;2023-04-06T03:37:08;9.73;;;3.60;;
26989;SDS011;14537;47.788;11.858;2023-04-06T03:39:33;11.07;;;3.53;;
26989;SDS011;14537;47.788;11.858;2023-04-06T03:41:59;8.02;;;3.63;;
26989;SDS011;14537;47.788;11.858;2023-04-06T03:44:25;7.13;;;4.18;;
26989;SDS011;14537;47.788;11.858;2023-04-06T03:46:50;6.22;;;3.53;;
26989;SDS011;14537;47.788;11.858;2023-04-06T03:49:16;9.20;;;4.30;;
26989;SDS011;14537;47.788;11.858;2023-04-06T03:51:42;8.52;;;4.05;;
26989;SDS011;14537;47.788;11.858;2023-04-06T03:54:07;7.40;;;3.67;;
26989;SDS011;14537;47.788;11.858;2023-04-06T03:56:33;14.02;;;4.63;;
26989;SDS011;14537;47.788;11.858;2023-04-06T03:58:58;14.00;;;3.97;;
26989;SDS011;14537;47.788;11.858;2023-04-06T04:01:24;8.15;;;4.30;;
26989;SDS011;14537;47.788;11.858;2023-04-06T04:03:50;7.05;;;4.03;;
26989;SDS011;14537;47.788;11.858;2023-04-06T04:06:16;10.60;;;4.13;;
26989;SDS011;14537;47.788;11.858;2023-04-06T04:08:42;8.07;;;3.50;;
26989;SDS011;14537;47.788;11.858;2023-04-06T04:11:07;10.23;;;4.53;;
26989;SDS011;14537;47.788;11.858;2023-04-06T04:13:33;10.70;;;4.30;;
26989;SDS011;14537;47.788;11.858;2023-04-06T04:15:58;10.07;;;4.05;;
26989;SDS011;14537;47.788;11.858;2023-04-06T04:18:24;8.38;;;3.92;;
26989;SDS011;14537;47.788;11.858;2023-04-06T04:20:50;8.52;;;4.05;;
26989;SDS011;14537;47.788;11.858;2023-04-06T04:23:16;5.53;;;3.55;;
26989;SDS011;14537;47.788;11.858;2023-04-06T04:25:43;9.63;;;4.45;;
26989;SDS011;14537;47.788;11.858;2023-04-06T04:28:08;11.20;;;4.13;;
26989;SDS011;14537;47.788;11.858;2023-04-06T04:30:34;7.47;;;4.20;;
26989;SDS011;14537;47.788;11.858;2023-04-06T04:33:00;9.00;;;3.53;;
26989;SDS011;14537;47.788;11.858;2023-04-06T04:35:26;9.07;;;3.60;;
26989;SDS011;14537;47.788;11.858;2023-04-06T04:37:51;7.40;;;3.97;;
26989;SDS011;14537;47.788;11.858;2023-04-06T04:40:17;7.55;;;3.75;;
26989;SDS011;14537;47.788;11.858;2023-04-06T04:42:43;7.53;;;4.10;;
26989;SDS011;14537;47.788;11.858;2023-04-06T04:45:08;7.07;;;3.35;;
26989;SDS011;14537;47.788;11.858;2023-04-06T04:47:34;10.55;;;4.28;;
26989;SDS011;14537;47.788;11.858;2023-04-06T04:50:00;7.63;;;3.40;;
26989;SDS011;14537;47.788;11.858;2023-04-06T04:52:25;7.00;;;4.32;;
26989;SDS011;14537;47.788;11.858;2023-04-06T04:54:51;7.90;;;4.18;;
26989;SDS011;14537;47.788;11.858;2023-04-06T04:57:17;7.78;;;4.38;;
26989;SDS011;14537;47.788;11.858;2023-04-06T04:59:42;7.60;;;4.50;;
26989;SDS011;14537;47.788;11.858;2023-04-06T05:02:08;11.23;;;4.20;;
26989;SDS011;14537;47.788;11.858;2023-04-06T05:04:34;7.32;;;3.83;;
26989;SDS011;14537;47.788;11.858;2023-04-06T05:07:03;14.10;;;4.32;;
26989;SDS011;14537;47.788;11.858;2023-04-06T05:09:33;8.48;;;4.90;;
26989;SDS011;14537;47.788;11.858;2023-04-06T05:11:59;9.50;;;4.35;;
26989;SDS011;14537;47.788;11.858;2023-04-06T05:14:25;8.27;;;4.32;;
26989;SDS011;14537;47.788;11.858;2023-04-06T05:16:51;8.90;;;4.93;;
26989;SDS011;14537;47.788;11.858;2023-04-06T05:19:18;9.48;;;4.68;;
26989;SDS011;14537;47.788;11.858;2023-04-06T05:21:44;8.57;;;4.47;;
26989;SDS011;14537;47.788;11.858;2023-04-06T05:24:10;7.57;;;4.40;;
26989;SDS011;14537;47.788;11.858;2023-04-06T05:26:35;9.80;;;5.10;;
26989;SDS011;14537;47.788;11.858;2023-04-06T05:29:01;16.58;;;5.15;;
26989;SDS011;14537;47.788;11.858;2023-04-06T05:31:27;8.98;;;4.50;;
26989;SDS011;14537;47.788;11.858;2023-04-06T05:33:52;13.93;;;4.90;;
26989;SDS011;14537;47.788;11.858;2023-04-06T05:36:18;11.77;;;4.72;;
26989;SDS011;14537;47.788;11.858;2023-04-06T05:38:44;12.48;;;5.22;;
26989;SDS011;14537;47.788;11.858;2023-04-06T05:41:09;12.90;;;5.03;;
26989;SDS011;14537;47.788;11.858;2023-04-06T05:43:36;11.05;;;5.43;;
26989;SDS011;14537;47.788;11.858;2023-04-06T05:46:01;10.30;;;5.47;;
26989;SDS011;14537;47.788;11.858;2023-04-06T05:48:27;12.95;;;4.63;;
26989;SDS011;14537;47.788;11.858;2023-04-06T05:50:53;10.45;;;4.75;;
26989;SDS011;14537;47.788;11.858;2023-04-06T05:53:19;10.48;;;5.32;;
26989;SDS011;14537;47.788;11.858;2023-04-06T05:55:46;9.45;;;4.15;;
26989;SDS011;14537;47.788;11.858;2023-04-06T05:58:11;8.70;;;4.75;;
26989;SDS011;14537;47.788;11.858;2023-04-06T06:00:37;9.73;;;4.28;;
26989;SDS011;14537;47.788;11.858;2023-04-06T06:03:03;8.20;;;5.10;;
26989;SDS011;14537;47.788;11.858;2023-04-06T06:05:30;13.57;;;6.50;;
26989;SDS011;14537;47.788;11.858;2023-04-06T06:07:56;15.02;;;6.70;;
26989;SDS011;14537;47.788;11.858;2023-04-06T06:10:22;18.25;;;8.38;;
26989;SDS011;14537;47.788;11.858;2023-04-06T06:12:47;13.48;;;6.63;;
26989;SDS011;14537;47.788;11.858;2023-04-06T06:15:13;13.75;;;5.65;;
26989;SDS011;14537;47.788;11.858;2023-04-06T06:17:39;13.70;;;5.60;;
26989;SDS011;14537;47.788;11.858;2023-04-06T06:20:07;9.80;;;5.43;;
26989;SDS011;14537;47.788;11.858;2023-04-06T06:22:33;17.03;;;6.17;;
26989;SDS011;14537;47.788;11.858;2023-04-06T06:24:59;15.07;;;6.70;;
26989;SDS011;14537;47.788;11.858;2023-04-06T06:27:24;14.32;;;7.32;;
26989;SDS011;14537;47.788;11.858;2023-04-06T06:29:50;13.25;;;6.53;;
26989;SDS011;14537;47.788;11.858;2023-04-06T06:32:15;9.43;;;5.72;;
26989;SDS011;14537;47.788;11.858;2023-04-06T06:34:41;11.45;;;5.35;;
26989;SDS011;14537;47.788;11.858;2023-04-06T06:37:07;18.85;;;6.97;;
26989;SDS011;14537;47.788;11.858;2023-04-06T06:39:32;13.82;;;5.93;;
26989;SDS011;14537;47.788;11.858;2023-04-06T06:41:58;12.02;;;5.85;;
26989;SDS011;14537;47.788;11.858;2023-04-06T06:44:26;11.73;;;5.28;;
26989;SDS011;14537;47.788;11.858;2023-04-06T06:46:52;10.55;;;5.88;;
26989;SDS011;14537;47.788;11.858;2023-04-06T06:49:17;12.48;;;5.80;;
26989;SDS011;14537;47.788;11.858;2023-04-06T06:51:43;10.43;;;5.88;;
26989;SDS011;14537;47.788;11.858;2023-04-06T06:54:10;12.55;;;5.82;;
26989;SDS011;14537;47.788;11.858;2023-04-06T06:56:36;13.30;;;6.32;;
26989;SDS011;14537;47.788;11.858;2023-04-06T06:59:03;13.68;;;6.55;;
26989;SDS011;14537;47.788;11.858;2023-04-06T07:01:28;14.02;;;6.88;;
26989;SDS011;14537;47.788;11.858;2023-04-06T07:03:54;15.45;;;7.15;;
26989;SDS011;14537;47.788;11.858;2023-04-06T07:06:20;11.15;;;5.93;;
26989;SDS011;14537;47.788;11.858;2023-04-06T07:08:46;19.70;;;7.63;;
26989;SDS011;14537;47.788;11.858;2023-04-06T07:11:11;17.42;;;7.95;;
26989;SDS011;14537;47.788;11.858;2023-04-06T07:13:37;18.60;;;7.50;;
26989;SDS011;14537;47.788;11.858;2023-04-06T07:16:02;20.05;;;7.95;;
26989;SDS011;14537;47.788;11.858;2023-04-06T07:18:28;15.35;;;6.40;;
26989;SDS011;14537;47.788;11.858;2023-04-06T07:20:54;19.38;;;7.63;;
26989;SDS011;14537;47.788;11.858;2023-04-06T07:23:20;21.23;;;8.13;;
26989;SDS011;14537;47.788;11.858;2023-04-06T07:25:45;16.23;;;7.93;;
26989;SDS011;14537;47.788;11.858;2023-04-06T07:28:11;15.05;;;7.55;;
26989;SDS011;14537;47.788;11.858;2023-04-06T07:30:37;13.30;;;6.35;;
26989;SDS011;14537;47.788;11.858;2023-04-06T07:33:04;22.48;;;7.70;;
26989;SDS011;14537;47.788;11.858;2023-04-06T07:35:30;17.23;;;7.38;;
26989;SDS011;14537;47.788;11.858;2023-04-06T07:37:56;15.02;;;5.80;;
26989;SDS011;14537;47.788;11.858;2023-04-06T07:40:22;12.27;;;6.05;;
26989;SDS011;14537;47.788;11.858;2023-04-06T07:42:47;15.60;;;6.93;;
26989;SDS011;14537;47.788;11.858;2023-04-06T07:45:13;17.80;;;7.68;;
26989;SDS011;14537;47.788;11.858;2023-04-06T07:47:40;16.77;;;6.70;;
26989;SDS011;14537;47.788;11.858;2023-04-06T07:50:06;12.23;;;6.43;;
26989;SDS011;14537;47.788;11.858;2023-04-06T07:52:32;13.73;;;6.30;;
26989;SDS011;14537;47.788;11.858;2023-04-06T07:54:58;13.25;;;6.10;;
26989;SDS011;14537;47.788;11.858;2023-04-06T07:57:24;12.43;;;5.90;;
26989;SDS011;14537;47.788;11.858;2023-04-06T07:59:50;11.77;;;5.00;;
26989;SDS011;14537;47.788;11.858;2023-04-06T08:02:15;12.48;;;6.07;;
26989;SDS011;14537;47.788;11.858;2023-04-06T08:04:41;11.95;;;5.65;;
26989;SDS011;14537;47.788;11.858;2023-04-06T08:07:07;10.52;;;5.15;;
26989;SDS011;14537;47.788;11.858;2023-04-06T08:09:32;18.20;;;5.75;;
26989;SDS011;14537;47.788;11.858;2023-04-06T08:11:58;10.18;;;4.80;;
26989;SDS011;14537;47.788;11.858;2023-04-06T08:14:24;14.65;;;5.68;;
26989;SDS011;14537;47.788;11.858;2023-04-06T08:16:49;12.52;;;6.07;;
26989;SDS011;14537;47.788;11.858;2023-04-06T08:19:15;11.63;;;4.93;;
26989;SDS011;14537;47.788;11.858;2023-04-06T08:21:42;10.90;;;4.90;;
26989;SDS011;14537;47.788;11.858;2023-04-06T08:24:08;13.02;;;5.88;;
26989;SDS011;14537;47.788;11.858;2023-04-06T08:26:34;10.23;;;5.30;;
26989;SDS011;14537;47.788;11.858;2023-04-06T08:28:59;9.18;;;4.70;;
26989;SDS011;14537;47.788;11.858;2023-04-06T08:31:25;8.52;;;4.88;;
26989;SDS011;14537;47.788;11.858;2023-04-06T08:33:51;8.98;;;4.50;;
26989;SDS011;14537;47.788;11.858;2023-04-06T08:36:17;11.88;;;6.10;;
26989;SDS011;14537;47.788;11.858;2023-04-06T08:38:47;13.73;;;6.03;;
26989;SDS011;14537;47.788;11.858;2023-04-06T08:41:14;10.73;;;5.43;;
26989;SDS011;14537;47.788;11.858;2023-04-06T08:46:12;13.82;;;5.88;;
26989;SDS011;14537;47.788;11.858;2023-04-06T08:48:38;11.60;;;5.63;;
26989;SDS011;14537;47.788;11.858;2023-04-06T08:51:06;9.15;;;5.45;;
26989;SDS011;14537;47.788;11.858;2023-04-06T08:53:32;11.88;;;5.60;;
26989;SDS011;14537;47.788;11.858;2023-04-06T08:55:58;14.43;;;5.47;;
26989;SDS011;14537;47.788;11.858;2023-04-06T08:58:24;9.13;;;5.00;;
26989;SDS011;14537;47.788;11.858;2023-04-06T09:00:52;11.93;;;5.43;;
26989;SDS011;14537;47.788;11.858;2023-04-06T09:03:18;9.93;;;5.43;;
26989;SDS011;14537;47.788;11.858;2023-04-06T09:05:46;15.02;;;6.45;;
26989;SDS011;14537;47.788;11.858;2023-04-06T09:08:12;15.05;;;6.00;;
26989;SDS011;14537;47.788;11.858;2023-04-06T09:10:41;9.07;;;4.80;;
26989;SDS011;14537;47.788;11.858;2023-04-06T09:13:07;11.55;;;4.97;;
26989;SDS011;14537;47.788;11.858;2023-04-06T09:15:33;12.27;;;5.40;;
26989;SDS011;14537;47.788;11.858;2023-04-06T09:18:00;13.55;;;5.57;;
26989;SDS011;14537;47.788;11.858;2023-04-06T09:20:26;8.65;;;4.90;;
26989;SDS011;14537;47.788;11.858;2023-04-06T09:22:53;10.10;;;4.95;;
26989;SDS011;14537;47.788;11.858;2023-04-06T09:25:21;14.85;;;5.35;;
26989;SDS011;14537;47.788;11.858;2023-04-06T09:28:02;11.02;;;5.85;;
26989;SDS011;14537;47.788;11.858;2023-04-06T09:30:29;10.65;;;5.78;;
26989;SDS011;14537;47.788;11.858;2023-04-06T09:32:56;10.75;;;4.93;;
26989;SDS011;14537;47.788;11.858;2023-04-06T09:35:23;9.30;;;5.45;;
26989;SDS011;14537;47.788;11.858;2023-04-06T09:37:50;13.50;;;5.80;;
26989;SDS011;14537;47.788;11.858;2023-04-06T09:40:16;11.20;;;5.57;;
26989;SDS011;14537;47.788;11.858;2023-04-06T09:42:46;11.65;;;5.63;;
26989;SDS011;14537;47.788;11.858;2023-04-06T09:45:14;12.25;;;4.97;;
26989;SDS011;14537;47.788;11.858;2023-04-06T09:47:44;10.20;;;5.35;;
26989;SDS011;14537;47.788;11.858;2023-04-06T09:50:11;10.75;;;5.50;;
26989;SDS011;14537;47.788;11.858;2023-04-06T09:52:46;11.32;;;5.95;;
26989;SDS011;14537;47.788;11.858;2023-04-06T09:55:30;11.05;;;4.20;;
26989;SDS011;14537;47.788;11.858;2023-04-06T09:58:04;12.23;;;5.65;;
26989;SDS011;14537;47.788;11.858;2023-04-06T10:00:32;7.82;;;4.63;;
26989;SDS011;14537;47.788;11.858;2023-04-06T10:08:11;10.23;;;5.20;;
26989;SDS011;14537;47.788;11.858;2023-04-06T10:10:38;10.50;;;5.32;;
26989;SDS011;14537;47.788;11.858;2023-04-06T10:13:04;10.15;;;5.20;;
26989;SDS011;14537;47.788;11.858;2023-04-06T10:15:30;11.88;;;5.55;;
26989;SDS011;14537;47.788;11.858;2023-04-06T10:17:59;9.50;;;5.40;;
26989;SDS011;14537;47.788;11.858;2023-04-06T10:20:36;10.40;;;6.13;;
26989;SDS011;14537;47.788;11.858;2023-04-06T10:23:13;8.60;;;4.57;;
26989;SDS011;14537;47.788;11.858;2023-04-06T10:25:57;12.45;;;5.00;;
26989;SDS011;14537;47.788;11.858;2023-04-06T10:28:24;11.85;;;5.82;;
26989;SDS011;14537;47.788;11.858;2023-04-06T10:30:56;9.95;;;5.47;;
26989;SDS011;14537;47.788;11.858;2023-04-06T10:33:23;8.25;;;4.53;;
26989;SDS011;14537;47.788;11.858;2023-04-06T10:35:49;9.98;;;4.68;;
26989;SDS011;14537;47.788;11.858;2023-04-06T10:38:14;8.57;;;4.43;;
26989;SDS011;14537;47.788;11.858;2023-04-06T10:40:44;10.18;;;5.38;;
26989;SDS011;14537;47.788;11.858;2023-04-06T10:43:13;8.88;;;4.78;;
26989;SDS011;14537;47.788;11.858;2023-04-06T10:45:56;10.65;;;5.22;;
26989;SDS011;14537;47.788;11.858;2023-04-06T10:48:24;10.30;;;4.88;;
26989;SDS011;14537;47.788;11.858;2023-04-06T10:50:54;8.63;;;4.55;;
26989;SDS011;14537;47.788;11.858;2023-04-06T10:55:54;10.75;;;5.25;;
26989;SDS011;14537;47.788;11.858;2023-04-06T10:58:20;6.88;;;4.45;;
26989;SDS011;14537;47.788;11.858;2023-04-06T11:00:50;9.15;;;4.55;;
26989;SDS011;14537;47.788;11.858;2023-04-06T11:03:16;12.00;;;4.97;;
26989;SDS011;14537;47.788;11.858;2023-04-06T11:05:46;13.35;;;6.00;;
26989;SDS011;14537;47.788;11.858;2023-04-06T11:11:08;9.25;;;4.97;;
26989;SDS011;14537;47.788;11.858;2023-04-06T11:16:24;8.48;;;4.88;;
26989;SDS011;14537;47.788;11.858;2023-04-06T11:21:18;10.15;;;5.70;;
26989;SDS011;14537;47.788;11.858;2023-04-06T11:23:45;8.07;;;4.78;;
26989;SDS011;14537;47.788;11.858;2023-04-06T11:26:14;7.68;;;4.05;;
26989;SDS011;14537;47.788;11.858;2023-04-06T11:28:41;6.07;;;3.90;;
26989;SDS011;14537;47.788;11.858;2023-04-06T11:31:08;8.25;;;3.92;;
26989;SDS011;14537;47.788;11.858;2023-04-06T11:33:36;7.95;;;3.88;;
26989;SDS011;14537;47.788;11.858;2023-04-06T11:36:02;7.35;;;4.32;;
26989;SDS011;14537;47.788;11.858;2023-04-06T11:38:29;10.55;;;4.13;;
26989;SDS011;14537;47.788;11.858;2023-04-06T11:40:55;10.45;;;4.70;;
26989;SDS011;14537;47.788;11.858;2023-04-06T11:43:29;10.60;;;4.40;;
26989;SDS011;14537;47.788;11.858;2023-04-06T11:45:59;9.93;;;4.97;;
26989;SDS011;14537;47.788;11.858;2023-04-06T11:48:29;9.68;;;5.30;;
26989;SDS011;14537;47.788;11.858;2023-04-06T11:50:55;8.95;;;4.75;;
26989;SDS011;14537;47.788;11.858;2023-04-06T11:53:22;8.82;;;4.82;;
26989;SDS011;14537;47.788;11.858;2023-04-06T11:55:48;11.05;;;4.70;;
26989;SDS011;14537;47.788;11.858;2023-04-06T11:58:14;18.50;;;5.78;;
26989;SDS011;14537;47.788;11.858;2023-04-06T12:00:40;9.68;;;4.80;;
26989;SDS011;14537;47.788;11.858;2023-04-06T12:03:10;10.43;;;4.63;;
26989;SDS011;14537;47.788;11.858;2023-04-06T12:05:36;8.27;;;4.78;;
26989;SDS011;14537;47.788;11.858;2023-04-06T12:08:02;14.75;;;4.90;;
26989;SDS011;14537;47.788;11.858;2023-04-06T12:10:28;10.02;;;4.07;;
26989;SDS011;14537;47.788;11.858;2023-04-06T12:12:53;8.95;;;4.45;;
26989;SDS011;14537;47.788;11.858;2023-04-06T12:15:19;10.77;;;4.70;;
26989;SDS011;14537;47.788;11.858;2023-04-06T12:17:45;9.05;;;4.63;;
26989;SDS011;14537;47.788;11.858;2023-04-06T12:20:11;9.57;;;4.28;;
26989;SDS011;14537;47.788;11.858;2023-04-06T12:22:37;10.88;;;4.00;;
26989;SDS011;14537;47.788;11.858;2023-04-06T12:25:03;10.77;;;4.97;;
26989;SDS011;14537;47.788;11.858;2023-04-06T12:27:29;7.72;;;4.40;;
26989;SDS011;14537;47.788;11.858;2023-04-06T12:29:55;5.68;;;4.13;;
26989;SDS011;14537;47.788;11.858;2023-04-06T12:32:20;9.48;;;4.53;;
26989;SDS011;14537;47.788;11.858;2023-04-06T12:34:46;7.97;;;4.50;;
26989;SDS011;14537;47.788;11.858;2023-04-06T12:37:12;9.38;;;4.53;;
26989;SDS011;14537;47.788;11.858;2023-04-06T12:39:38;5.65;;;3.63;;
26989;SDS011;14537;47.788;11.858;2023-04-06T12:42:03;11.35;;;4.07;;
26989;SDS011;14537;47.788;11.858;2023-04-06T12:44:29;9.82;;;5.20;;
26989;SDS011;14537;47.788;11.858;2023-04-06T12:46:55;6.65;;;4.07;;
26989;SDS011;14537;47.788;11.858;2023-04-06T12:49:21;7.95;;;4.22;;
26989;SDS011;14537;47.788;11.858;2023-04-06T12:51:46;9.05;;;5.10;;
26989;SDS011;14537;47.788;11.858;2023-04-06T12:54:12;9.10;;;4.80;;
26989;SDS011;14537;47.788;11.858;2023-04-06T12:56:38;9.60;;;4.05;;
26989;SDS011;14537;47.788;11.858;2023-04-06T12:59:04;8.50;;;4.05;;
26989;SDS011;14537;47.788;11.858;2023-04-06T13:01:30;8.40;;;3.95;;
26989;SDS011;14537;47.788;11.858;2023-04-06T13:03:56;7.07;;;4.05;;
26989;SDS011;14537;47.788;11.858;2023-04-06T13:06:22;10.05;;;4.10;;
26989;SDS011;14537;47.788;11.858;2023-04-06T13:08:52;6.97;;;4.05;;
26989;SDS011;14537;47.788;11.858;2023-04-06T13:11:18;7.72;;;4.15;;
26989;SDS011;14537;47.788;11.858;2023-04-06T13:13:45;8.85;;;4.32;;
26989;SDS011;14537;47.788;11.858;2023-04-06T13:16:11;8.65;;;4.28;;
26989;SDS011;14537;47.788;11.858;2023-04-06T13:18:36;7.78;;;4.07;;
26989;SDS011;14537;47.788;11.858;2023-04-06T13:21:03;7.25;;;4.05;;
26989;SDS011;14537;47.788;11.858;2023-04-06T13:23:30;8.05;;;4.30;;
26989;SDS011;14537;47.788;11.858;2023-04-06T13:25:56;7.20;;;4.05;;
26989;SDS011;14537;47.788;11.858;2023-04-06T13:28:26;7.55;;;3.85;;
26989;SDS011;14537;47.788;11.858;2023-04-06T13:30:52;6.13;;;3.42;;
26989;SDS011;14537;47.788;11.858;2023-04-06T13:33:18;7.63;;;3.83;;
26989;SDS011;14537;47.788;11.858;2023-04-06T13:35:44;6.15;;;3.47;;
26989;SDS011;14537;47.788;11.858;2023-04-06T13:38:21;7.25;;;3.42;;
26989;SDS011;14537;47.788;11.858;2023-04-06T13:40:49;7.68;;;4.00;;
26989;SDS011;14537;47.788;11.858;2023-04-06T13:43:15;7.10;;;4.35;;
26989;SDS011;14537;47.788;11.858;2023-04-06T13:45:43;6.82;;;4.05;;
26989;SDS011;14537;47.788;11.858;2023-04-06T13:48:18;6.80;;;4.20;;
26989;SDS011;14537;47.788;11.858;2023-04-06T13:50:44;6.85;;;4.00;;
26989;SDS011;14537;47.788;11.858;2023-04-06T13:53:10;6.55;;;4.15;;
26989;SDS011;14537;47.788;11.858;2023-04-06T13:55:36;8.45;;;4.32;;
26989;SDS011;14537;47.788;11.858;2023-04-06T13:58:02;8.13;;;3.90;;
26989;SDS011;14537;47.788;11.858;2023-04-06T14:00:27;9.13;;;4.25;;
26989;SDS011;14537;47.788;11.858;2023-04-06T14:02:54;8.05;;;4.20;;
26989;SDS011;14537;47.788;11.858;2023-04-06T14:05:20;7.78;;;4.65;;
26989;SDS011;14537;47.788;11.858;2023-04-06T14:07:46;8.10;;;3.90;;
26989;SDS011;14537;47.788;11.858;2023-04-06T14:10:12;6.07;;;4.15;;
26989;SDS011;14537;47.788;11.858;2023-04-06T14:12:44;8.73;;;3.95;;
26989;SDS011;14537;47.788;11.858;2023-04-06T14:15:10;12.20;;;4.93;;
26989;SDS011;14537;47.788;11.858;2023-04-06T14:17:37;7.53;;;4.47;;
26989;SDS011;14537;47.788;11.858;2023-04-06T14:20:04;8.93;;;4.15;;
26989;SDS011;14537;47.788;11.858;2023-04-06T14:22:30;7.47;;;4.28;;
26989;SDS011;14537;47.788;11.858;2023-04-06T14:24:56;6.75;;;4.30;;
26989;SDS011;14537;47.788;11.858;2023-04-06T14:27:22;7.65;;;4.03;;
26989;SDS011;14537;47.788;11.858;2023-04-06T14:29:48;7.28;;;3.97;;
26989;SDS011;14537;47.788;11.858;2023-04-06T14:32:14;5.53;;;3.53;;
26989;SDS011;14537;47.788;11.858;2023-04-06T14:34:40;8.48;;;4.22;;
26989;SDS011;14537;47.788;11.858;2023-04-06T14:37:05;7.85;;;4.30;;
26989;SDS011;14537;47.788;11.858;2023-04-06T14:39:31;7.07;;;4.05;;
26989;SDS011;14537;47.788;11.858;2023-04-06T14:41:57;10.82;;;4.40;;